createdAt,value
2018-04-16T00:01:56.924Z,19.60
2018-04-16T00:04:23.777Z,21.33
2018-04-16T00:06:50.640Z,20.77
2018-04-16T00:09:18.364Z,24.70
2018-04-16T00:11:45.298Z,22.90
2018-04-16T00:14:17.000Z,22.77
2018-04-16T00:16:43.850Z,22.20
2018-04-16T00:19:15.573Z,24.33
2018-04-16T00:21:46.134Z,23.07
2018-04-16T00:24:23.982Z,22.77
2018-04-16T00:26:56.394Z,21.83
2018-04-16T00:29:24.171Z,22.70
2018-04-16T00:31:57.725Z,23.27
2018-04-16T00:34:48.401Z,22.60
2018-04-16T00:37:22.927Z,23.57
2018-04-16T00:42:47.769Z,24.97
2018-04-16T00:45:24.541Z,23.47
2018-04-16T00:47:57.853Z,23.30
2018-04-16T00:50:32.306Z,22.17
2018-04-16T00:53:04.969Z,24.50
2018-04-16T00:55:39.212Z,22.70
2018-04-16T00:58:23.157Z,25.07
2018-04-16T01:00:55.537Z,23.60
2018-04-16T01:03:28.218Z,23.93
2018-04-16T01:06:04.213Z,26.63
2018-04-16T01:08:37.391Z,25.63
2018-04-16T01:11:16.069Z,29.63
2018-04-16T01:13:54.044Z,22.00
2018-04-16T01:16:26.774Z,25.90
2018-04-16T01:19:00.311Z,25.10
2018-04-16T01:21:34.784Z,31.60
2018-04-16T01:24:08.291Z,22.93
2018-04-16T01:26:41.711Z,29.60
2018-04-16T01:29:15.345Z,24.60
2018-04-16T01:31:48.876Z,26.43
2018-04-16T01:34:23.412Z,23.60
2018-04-16T01:36:55.913Z,24.73
2018-04-16T01:39:38.969Z,23.63
2018-04-16T01:42:16.333Z,25.07
2018-04-16T01:44:50.762Z,23.97
2018-04-16T01:47:25.261Z,26.07
2018-04-16T01:50:02.266Z,24.53
2018-04-16T01:52:34.717Z,25.60
2018-04-16T01:55:07.084Z,28.77
2018-04-16T01:57:39.501Z,26.53
2018-04-16T02:00:12.993Z,24.87
2018-04-16T02:02:46.560Z,26.37
2018-04-16T02:05:22.503Z,27.37
2018-04-16T02:08:00.550Z,29.60
2018-04-16T02:10:39.380Z,27.53
2018-04-16T02:13:11.800Z,31.87
2018-04-16T02:15:44.602Z,25.73
2018-04-16T02:18:30.045Z,32.27
2018-04-16T02:21:04.471Z,26.47
2018-04-16T02:23:41.809Z,24.80
2018-04-16T02:26:16.351Z,23.03
2018-04-16T02:28:48.709Z,25.33
2018-04-16T02:31:23.283Z,27.97
2018-04-16T02:33:56.668Z,25.57
2018-04-16T02:36:29.962Z,26.43
2018-04-16T02:39:06.202Z,24.93
2018-04-16T02:41:38.504Z,26.80
2018-04-16T02:44:14.226Z,27.33
2018-04-16T02:47:00.642Z,24.83
2018-04-16T02:49:34.285Z,30.53
2018-04-16T02:52:08.423Z,26.33
2018-04-16T02:54:45.077Z,27.30
2018-04-16T02:57:24.131Z,26.60
2018-04-16T03:00:01.746Z,31.47
2018-04-16T03:02:45.183Z,28.80
2018-04-16T03:05:22.775Z,27.37
2018-04-16T03:08:04.126Z,29.23
2018-04-16T03:10:38.430Z,28.43
2018-04-16T03:13:22.022Z,28.83
2018-04-16T03:16:01.382Z,25.00
2018-04-16T03:18:40.932Z,25.97
2018-04-16T03:21:13.547Z,26.40
2018-04-16T03:23:45.951Z,26.73
2018-04-16T03:26:18.350Z,27.70
2018-04-16T03:28:53.785Z,30.07
2018-04-16T03:31:28.211Z,28.87
2018-04-16T03:34:00.495Z,26.90
2018-04-16T03:36:33.975Z,30.43
2018-04-16T03:39:17.369Z,33.40
2018-04-16T03:41:49.861Z,29.47
2018-04-16T03:44:22.243Z,28.87
2018-04-16T03:47:00.385Z,27.90
2018-04-16T03:49:40.657Z,30.60
2018-04-16T03:52:14.025Z,32.93
2018-04-16T03:54:44.293Z,30.47
2018-04-16T03:57:12.047Z,28.43
2018-04-16T03:59:51.355Z,27.37
2018-04-16T04:02:18.017Z,29.73
2018-04-16T04:04:47.985Z,28.13
2018-04-16T04:07:22.156Z,31.47
2018-04-16T04:09:49.010Z,29.80
2018-04-16T04:12:29.847Z,28.93
2018-04-16T04:15:11.447Z,28.80
2018-04-16T04:17:43.039Z,29.47
2018-04-16T04:20:11.721Z,28.63
2018-04-16T04:22:50.251Z,26.43
2018-04-16T04:25:32.906Z,26.53
2018-04-16T04:28:06.275Z,27.20
2018-04-16T04:30:38.767Z,30.63
2018-04-16T04:33:05.557Z,27.53
2018-04-16T04:35:33.335Z,33.00
2018-04-16T04:40:46.069Z,26.17
2018-04-16T04:43:17.842Z,28.13
2018-04-16T04:45:55.410Z,27.33
2018-04-16T04:51:07.581Z,27.63
2018-04-16T04:53:40.232Z,29.03
2018-04-16T04:56:17.522Z,29.53
2018-04-16T04:58:44.365Z,28.17
2018-04-16T05:01:17.746Z,33.60
2018-04-16T05:03:46.360Z,31.27
2018-04-16T05:06:18.132Z,34.00
2018-04-16T05:08:45.352Z,33.60
2018-04-16T05:11:13.928Z,32.40
2018-04-16T05:13:47.523Z,31.27
2018-04-16T05:16:20.825Z,31.40
2018-04-16T05:18:59.334Z,34.37
2018-04-16T05:21:38.751Z,34.07
2018-04-16T05:24:19.935Z,34.70
2018-04-16T05:26:46.609Z,31.77
2018-04-16T05:29:20.536Z,31.43
2018-04-16T05:31:48.297Z,32.57
2018-04-16T05:34:15.117Z,32.13
2018-04-16T05:36:45.646Z,32.00
2018-04-16T05:42:15.173Z,36.70
2018-04-16T05:44:45.213Z,30.50
2018-04-16T05:47:20.313Z,32.47
2018-04-16T05:49:54.240Z,31.57
2018-04-16T05:52:31.820Z,32.47
2018-04-16T05:55:02.090Z,27.67
2018-04-16T05:57:29.889Z,34.33
2018-04-16T05:59:56.706Z,28.47
2018-04-16T06:02:23.524Z,30.13
2018-04-16T06:07:39.038Z,27.20
2018-04-16T06:13:05.764Z,29.77
2018-04-16T06:15:40.731Z,31.50
2018-04-16T06:18:26.798Z,29.57
2018-04-16T06:21:03.878Z,24.57
2018-04-16T06:23:33.842Z,31.80
2018-04-16T06:26:00.645Z,25.87
2018-04-16T06:28:29.332Z,29.60
2018-04-16T06:30:57.205Z,25.97
2018-04-16T06:33:24.878Z,31.33
2018-04-16T06:35:53.597Z,27.43
2018-04-16T06:38:27.178Z,30.50
2018-04-16T06:40:54.000Z,28.10
2018-04-16T06:43:25.761Z,26.30
2018-04-16T06:45:53.564Z,26.87
2018-04-16T06:48:28.027Z,27.80
2018-04-16T06:51:05.634Z,23.17
2018-04-16T06:53:35.902Z,25.40
2018-04-16T06:56:02.713Z,24.80
2018-04-16T06:58:30.479Z,25.47
2018-04-16T07:00:58.253Z,22.07
2018-04-16T07:03:26.959Z,26.33
2018-04-16T07:05:54.726Z,26.87
2018-04-16T07:08:22.462Z,27.40
2018-04-16T07:10:50.244Z,26.90
2018-04-16T07:13:29.569Z,25.80
2018-04-16T07:16:15.152Z,23.37
2018-04-16T07:18:47.318Z,20.37
2018-04-16T07:21:26.323Z,24.57
2018-04-16T07:26:40.737Z,20.30
2018-04-16T07:29:12.802Z,21.73
2018-04-16T07:31:39.629Z,19.30
2018-04-16T07:34:07.405Z,14.17
2018-04-16T07:36:34.238Z,22.33
2018-04-16T07:39:06.013Z,23.90
2018-04-16T07:41:40.818Z,16.17
2018-04-16T07:44:08.600Z,15.87
2018-04-16T07:46:47.117Z,19.20
2018-04-16T07:49:15.860Z,16.00
2018-04-16T07:51:45.443Z,19.73
2018-04-16T07:54:24.234Z,13.53
2018-04-16T07:56:52.917Z,17.70
2018-04-16T07:59:20.673Z,19.90
2018-04-16T08:01:58.271Z,16.60
2018-04-16T08:04:30.659Z,16.17
2018-04-16T08:07:11.503Z,18.27
2018-04-16T08:09:42.169Z,15.63
2018-04-16T08:12:10.888Z,21.43
2018-04-16T08:14:37.690Z,16.20
2018-04-16T08:17:04.522Z,11.13
2018-04-16T08:19:32.310Z,14.87
2018-04-16T08:21:59.155Z,12.80
2018-04-16T08:24:25.992Z,19.30
2018-04-16T08:29:38.113Z,21.10
2018-04-16T08:32:05.878Z,22.00
2018-04-16T08:34:33.691Z,13.27
2018-04-16T08:37:00.505Z,13.77
2018-04-16T08:39:28.254Z,14.10
2018-04-16T08:41:56.027Z,13.73
2018-04-16T08:44:23.796Z,14.10
2018-04-16T08:46:51.573Z,14.57
2018-04-16T08:49:18.397Z,13.80
2018-04-16T08:51:46.194Z,14.93
2018-04-16T08:54:13.025Z,15.80
2018-04-16T08:56:40.784Z,13.17
2018-04-16T08:59:08.546Z,16.33
2018-04-16T09:01:39.083Z,13.87
2018-04-16T09:04:05.901Z,20.00
2018-04-16T09:06:32.763Z,22.20
2018-04-16T09:08:59.617Z,17.80
2018-04-16T09:11:28.357Z,17.57
2018-04-16T09:13:56.113Z,16.07
2018-04-16T09:16:35.669Z,22.73
2018-04-16T09:19:12.435Z,17.33
2018-04-16T09:21:41.187Z,13.47
2018-04-16T09:24:08.018Z,20.37
2018-04-16T09:26:41.884Z,19.80
2018-04-16T09:29:12.136Z,20.03
2018-04-16T09:31:39.898Z,25.20
2018-04-16T09:34:17.166Z,20.47
2018-04-16T09:36:44.981Z,25.73
2018-04-16T09:39:11.785Z,16.73
2018-04-16T09:44:36.708Z,22.20
2018-04-16T09:47:13.506Z,19.80
2018-04-16T09:49:41.273Z,25.73
2018-04-16T09:52:09.017Z,20.63
2018-04-16T09:54:40.517Z,18.77
2018-04-16T09:57:14.989Z,21.43
2018-04-16T09:59:41.848Z,24.83
2018-04-16T10:02:16.285Z,19.27
2018-04-16T10:04:44.172Z,19.17
2018-04-16T10:07:11.007Z,20.47
2018-04-16T10:09:38.752Z,20.77
2018-04-16T10:12:06.518Z,16.03
2018-04-16T10:17:23.315Z,18.17
2018-04-16T10:20:01.417Z,19.83
2018-04-16T10:22:31.690Z,18.10
2018-04-16T10:25:09.046Z,16.87
2018-04-16T10:27:41.034Z,25.63
2018-04-16T10:30:11.866Z,21.03
2018-04-16T10:32:40.621Z,17.13
2018-04-16T10:35:09.280Z,16.57
2018-04-16T10:37:43.133Z,26.87
2018-04-16T10:40:11.175Z,23.53
2018-04-16T10:42:39.983Z,19.00
2018-04-16T10:45:06.785Z,25.13
2018-04-16T10:47:37.590Z,23.17
2018-04-16T10:50:04.428Z,21.23
2018-04-16T10:52:31.309Z,22.33
2018-04-16T10:54:58.133Z,21.97
2018-04-16T10:57:25.411Z,17.17
2018-04-16T10:59:52.124Z,20.93
2018-04-16T11:02:19.936Z,17.50
2018-04-16T11:04:50.105Z,22.67
2018-04-16T11:07:17.899Z,18.10
2018-04-16T11:09:49.342Z,18.00
2018-04-16T11:12:17.104Z,19.70
2018-04-16T11:15:03.176Z,21.97
2018-04-16T11:17:31.984Z,17.83
2018-04-16T11:20:02.239Z,22.10
2018-04-16T11:22:40.685Z,27.33
2018-04-16T11:25:08.549Z,23.97
2018-04-16T11:27:44.835Z,24.17
2018-04-16T11:30:18.762Z,26.50
2018-04-16T11:32:51.094Z,23.43
2018-04-16T11:35:32.650Z,20.87
2018-04-16T11:38:03.870Z,24.07
2018-04-16T11:40:31.641Z,25.50
2018-04-16T11:42:58.482Z,23.00
2018-04-16T11:45:37.674Z,17.33
2018-04-16T11:48:20.922Z,24.87
2018-04-16T11:51:02.538Z,23.47
2018-04-16T11:53:35.421Z,15.53
2018-04-16T11:56:03.137Z,17.67
2018-04-16T11:58:30.848Z,21.47
2018-04-16T12:00:57.694Z,21.30
2018-04-16T12:03:27.934Z,17.17
2018-04-16T12:05:55.190Z,21.63
2018-04-16T12:08:24.052Z,26.47
2018-04-16T12:10:51.828Z,24.43
2018-04-16T12:13:18.655Z,23.70
2018-04-16T12:15:45.518Z,24.20
2018-04-16T12:18:19.748Z,24.30
2018-04-16T12:20:48.406Z,20.47
2018-04-16T12:23:16.234Z,20.17
2018-04-16T12:25:43.051Z,20.77
2018-04-16T12:28:09.873Z,18.77
2018-04-16T12:30:41.370Z,15.93
2018-04-16T12:33:12.476Z,15.97
2018-04-16T12:35:40.229Z,17.37
2018-04-16T12:38:07.998Z,17.43
2018-04-16T12:40:40.138Z,16.37
2018-04-16T12:43:07.821Z,15.90
2018-04-16T12:45:37.787Z,20.37
2018-04-16T12:48:04.597Z,17.00
2018-04-16T12:50:33.271Z,12.87
2018-04-16T12:53:01.041Z,8.93
2018-04-16T12:55:34.368Z,22.83
2018-04-16T13:00:52.567Z,21.03
2018-04-16T13:03:25.595Z,20.13
2018-04-16T13:05:53.372Z,21.27
2018-04-16T13:08:25.444Z,20.70
2018-04-16T13:10:53.170Z,13.03
2018-04-16T13:13:32.181Z,14.13
2018-04-16T13:15:59.793Z,15.60
2018-04-16T13:18:27.553Z,13.40
2018-04-16T13:20:56.264Z,13.57
2018-04-16T13:23:23.987Z,12.27
2018-04-16T13:25:54.221Z,17.63
2018-04-16T13:28:21.080Z,24.47
2018-04-16T13:30:48.838Z,18.87
2018-04-16T13:33:17.541Z,25.47
2018-04-16T13:35:44.416Z,18.70
2018-04-16T13:38:14.655Z,13.43
2018-04-16T13:40:45.113Z,12.73
2018-04-16T13:43:11.988Z,17.67
2018-04-16T13:45:39.738Z,15.53
2018-04-16T13:48:07.514Z,18.23
2018-04-16T13:50:34.760Z,17.83
2018-04-16T13:53:01.472Z,11.77
2018-04-16T13:55:34.857Z,16.57
2018-04-16T13:58:07.185Z,17.50
2018-04-16T14:00:38.637Z,18.03
2018-04-16T14:03:05.438Z,13.93
2018-04-16T14:05:34.138Z,10.60
2018-04-16T14:08:09.598Z,12.97
2018-04-16T14:10:37.024Z,9.07
2018-04-16T14:13:16.171Z,12.33
2018-04-16T14:15:44.862Z,9.27
2018-04-16T14:18:11.702Z,14.70
2018-04-16T14:20:39.488Z,15.23
2018-04-16T14:23:11.526Z,16.50
2018-04-16T14:25:39.446Z,14.03
2018-04-16T14:28:08.318Z,14.80
2018-04-16T14:30:36.998Z,16.93
2018-04-16T14:33:05.693Z,16.40
2018-04-16T14:35:43.234Z,21.53
2018-04-16T14:38:10.134Z,20.17
2018-04-16T14:40:36.960Z,14.50
2018-04-16T14:43:07.488Z,16.33
2018-04-16T14:45:35.258Z,17.50
2018-04-16T14:48:02.154Z,16.87
2018-04-16T14:50:37.201Z,18.73
2018-04-16T14:53:04.084Z,16.03
2018-04-16T14:55:32.822Z,21.33
2018-04-16T14:58:01.457Z,18.93
2018-04-16T15:00:44.739Z,20.67
2018-04-16T15:03:12.351Z,16.57
2018-04-16T15:05:41.046Z,22.33
2018-04-16T15:08:08.042Z,16.80
2018-04-16T15:10:34.758Z,17.13
2018-04-16T15:13:10.762Z,19.53
2018-04-16T15:15:38.547Z,18.50
2018-04-16T15:20:54.632Z,15.80
2018-04-16T15:23:22.427Z,20.67
2018-04-16T15:26:01.517Z,15.60
2018-04-16T15:28:45.477Z,15.30
2018-04-16T15:31:12.138Z,14.73
2018-04-16T15:33:39.927Z,13.53
2018-04-16T15:36:13.805Z,16.90
2018-04-16T15:38:40.687Z,13.97
2018-04-16T15:41:10.584Z,20.20
2018-04-16T15:43:42.963Z,17.23
2018-04-16T15:46:21.742Z,13.30
2018-04-16T15:48:55.698Z,13.90
2018-04-16T15:51:35.915Z,19.03
2018-04-16T15:54:21.552Z,16.70
2018-04-16T15:56:54.271Z,14.87
2018-04-16T15:59:21.168Z,17.70
2018-04-16T16:01:47.995Z,19.00
2018-04-16T16:04:15.786Z,17.50
2018-04-16T16:06:42.622Z,18.53
2018-04-16T16:09:11.668Z,16.70
2018-04-16T16:11:38.436Z,16.80
2018-04-16T16:14:12.941Z,15.60
2018-04-16T16:16:40.742Z,19.77
2018-04-16T16:19:09.436Z,19.23
2018-04-16T16:21:46.059Z,22.57
2018-04-16T16:24:12.955Z,19.60
2018-04-16T16:26:49.612Z,15.83
2018-04-16T16:29:16.458Z,17.93
2018-04-16T16:31:44.218Z,14.93
2018-04-16T16:34:11.996Z,19.53
2018-04-16T16:36:40.697Z,12.40
2018-04-16T16:39:19.782Z,19.00
2018-04-16T16:41:47.587Z,16.50
2018-04-16T16:44:17.480Z,16.63
2018-04-16T16:46:45.233Z,17.57
2018-04-16T16:49:26.430Z,14.10
2018-04-16T16:51:56.757Z,15.50
2018-04-16T16:54:24.524Z,18.13
2018-04-16T16:56:55.085Z,15.77
2018-04-16T16:59:25.922Z,13.00
2018-04-16T17:01:56.409Z,16.37
2018-04-16T17:04:27.005Z,11.67
2018-04-16T17:06:59.649Z,15.13
2018-04-16T17:09:28.326Z,10.60
2018-04-16T17:11:55.191Z,15.20
2018-04-16T17:14:21.997Z,13.50
2018-04-16T17:16:54.722Z,17.07
2018-04-16T17:19:22.484Z,12.30
2018-04-16T17:21:49.329Z,12.43
2018-04-16T17:24:23.442Z,19.23
2018-04-16T17:26:50.553Z,15.10
2018-04-16T17:29:17.287Z,14.63
2018-04-16T17:31:45.047Z,16.33
2018-04-16T17:34:13.672Z,14.80
2018-04-16T17:36:40.526Z,11.83
2018-04-16T17:39:08.301Z,19.70
2018-04-16T17:41:35.439Z,17.30
2018-04-16T17:44:02.435Z,13.80
2018-04-16T17:46:29.110Z,16.83
2018-04-16T17:48:55.971Z,17.60
2018-04-16T17:51:23.748Z,11.53
2018-04-16T17:53:50.567Z,15.17
2018-04-16T17:56:17.798Z,16.47
2018-04-16T17:58:44.529Z,15.60
2018-04-16T18:01:18.448Z,14.90
2018-04-16T18:03:47.160Z,14.77
2018-04-16T18:06:14.000Z,17.70
2018-04-16T18:08:53.511Z,11.50
2018-04-16T18:11:21.224Z,16.43
2018-04-16T18:13:49.201Z,12.43
2018-04-16T18:16:16.472Z,18.47
2018-04-16T18:18:43.296Z,12.43
2018-04-16T18:21:20.568Z,16.60
2018-04-16T18:23:47.391Z,14.50
2018-04-16T18:26:14.236Z,15.10
2018-04-16T18:28:41.125Z,13.90
2018-04-16T18:31:07.923Z,17.80
2018-04-16T18:33:44.909Z,16.30
2018-04-16T18:36:14.861Z,9.63
2018-04-16T18:38:41.681Z,13.67
2018-04-16T18:41:14.076Z,12.27
2018-04-16T18:43:40.919Z,21.30
2018-04-16T18:46:19.400Z,20.13
2018-04-16T18:48:52.135Z,16.10
2018-04-16T18:51:18.932Z,15.43
2018-04-16T18:53:47.650Z,18.03
2018-04-16T18:56:16.297Z,13.43
2018-04-16T18:58:44.104Z,10.00
2018-04-16T19:01:10.986Z,12.53
2018-04-16T19:03:37.935Z,16.00
2018-04-16T19:06:10.206Z,14.43
2018-04-16T19:08:40.970Z,19.67
2018-04-16T19:11:07.902Z,13.73
2018-04-16T19:13:35.576Z,14.60
2018-04-16T19:16:02.563Z,15.70
2018-04-16T19:18:29.270Z,14.40
2018-04-16T19:21:14.163Z,11.07
2018-04-16T19:23:42.051Z,10.47
2018-04-16T19:26:09.811Z,18.47
2018-04-16T19:28:36.614Z,11.87
2018-04-16T19:31:06.846Z,17.80
2018-04-16T19:33:39.380Z,18.33
2018-04-16T19:36:10.387Z,13.93
2018-04-16T19:38:42.710Z,13.67
2018-04-16T19:41:14.832Z,13.33
2018-04-16T19:43:41.640Z,11.40
2018-04-16T19:46:10.343Z,16.53
2018-04-16T19:48:43.968Z,11.30
2018-04-16T19:51:10.773Z,11.17
2018-04-16T19:53:37.610Z,10.43
2018-04-16T19:56:18.304Z,12.87
2018-04-16T19:58:50.387Z,8.07
2018-04-16T20:01:19.050Z,13.47
2018-04-16T20:03:52.612Z,12.57
2018-04-16T20:06:25.237Z,10.37
2018-04-16T20:08:55.532Z,16.93
2018-04-16T20:11:24.237Z,10.40
2018-04-16T20:13:50.925Z,19.23
2018-04-16T20:16:17.857Z,11.63
2018-04-16T20:18:49.378Z,13.77
2018-04-16T20:21:19.903Z,11.77
2018-04-16T20:23:46.747Z,9.27
2018-04-16T20:26:15.423Z,9.00
2018-04-16T20:28:42.274Z,15.53
2018-04-16T20:31:16.480Z,20.17
2018-04-16T20:33:50.380Z,19.20
2018-04-16T20:36:22.904Z,29.87
2018-04-16T20:38:53.636Z,22.87
2018-04-16T20:41:24.118Z,14.00
2018-04-16T20:43:52.864Z,13.97
2018-04-16T20:46:23.295Z,15.97
2018-04-16T20:48:51.124Z,17.17
2018-04-16T20:51:23.258Z,14.33
2018-04-16T20:53:50.373Z,16.53
2018-04-16T20:56:23.358Z,11.77
2018-04-16T20:58:56.932Z,8.70
2018-04-16T21:01:27.501Z,14.70
2018-04-16T21:03:58.031Z,11.80
2018-04-16T21:06:35.269Z,10.13
2018-04-16T21:09:02.128Z,8.37
2018-04-16T21:11:29.881Z,11.47
2018-04-16T21:13:56.742Z,13.13
2018-04-16T21:16:25.448Z,7.50
2018-04-16T21:18:52.277Z,12.37
2018-04-16T21:21:19.193Z,16.17
2018-04-16T21:23:47.884Z,12.20
2018-04-16T21:26:14.635Z,15.80
2018-04-16T21:28:46.455Z,16.73
2018-04-16T21:31:14.177Z,11.17
2018-04-16T21:33:44.687Z,13.37
2018-04-16T21:36:13.463Z,13.03
2018-04-16T21:38:41.145Z,7.57
2018-04-16T21:41:07.983Z,20.77
2018-04-16T21:43:35.818Z,17.70
2018-04-16T21:46:04.883Z,19.47
2018-04-16T21:48:35.075Z,15.40
2018-04-16T21:51:03.676Z,13.17
2018-04-16T21:53:32.398Z,10.70
2018-04-16T21:55:59.239Z,15.20
2018-04-16T21:58:26.048Z,16.33
2018-04-16T22:00:52.909Z,12.90
2018-04-16T22:03:20.722Z,11.70
2018-04-16T22:05:48.418Z,14.30
2018-04-16T22:08:16.181Z,13.10
2018-04-16T22:10:46.448Z,18.03
2018-04-16T22:13:23.661Z,15.27
2018-04-16T22:15:53.609Z,13.53
2018-04-16T22:21:06.357Z,14.93
2018-04-16T22:23:35.074Z,15.37
2018-04-16T22:26:01.898Z,11.43
2018-04-16T22:28:30.568Z,15.57
2018-04-16T22:30:57.417Z,16.57
2018-04-16T22:33:24.327Z,12.37
2018-04-16T22:35:51.118Z,11.90
2018-04-16T22:38:17.959Z,14.23
2018-04-16T22:40:45.708Z,11.97
2018-04-16T22:43:14.384Z,9.60
2018-04-16T22:45:41.255Z,8.20
2018-04-16T22:48:09.991Z,14.00
2018-04-16T22:50:37.686Z,15.07
2018-04-16T22:53:06.383Z,15.53
2018-04-16T22:55:33.269Z,12.73
2018-04-16T22:58:00.340Z,15.53
2018-04-16T23:00:29.061Z,22.10
2018-04-16T23:02:58.974Z,12.67
2018-04-16T23:05:25.815Z,12.37
2018-04-16T23:07:52.654Z,14.63
2018-04-16T23:10:32.901Z,12.07
2018-04-16T23:13:00.480Z,10.40
2018-04-16T23:15:35.318Z,15.70
2018-04-16T23:18:06.477Z,11.20
2018-04-16T23:20:40.111Z,17.80
2018-04-16T23:23:06.893Z,13.03
2018-04-16T23:25:33.960Z,14.13
2018-04-16T23:28:01.847Z,14.33
2018-04-16T23:30:29.628Z,9.07
2018-04-16T23:32:56.434Z,18.00
2018-04-16T23:35:23.520Z,9.50
2018-04-16T23:37:50.170Z,8.70
2018-04-16T23:40:23.190Z,11.80
2018-04-16T23:42:49.937Z,11.37
2018-04-16T23:45:18.624Z,10.90
2018-04-16T23:47:45.499Z,10.53
2018-04-16T23:50:12.347Z,12.87
2018-04-16T23:52:39.197Z,12.47
2018-04-16T23:55:13.975Z,13.27
2018-04-16T23:57:44.230Z,11.83
